createdAt,value
2018-01-03T00:00:56.346Z,99370.78
2018-01-03T00:03:23.982Z,99357.44
2018-01-03T00:05:51.585Z,99342.81
2018-01-03T00:08:39.416Z,99335.46
2018-01-03T00:13:42.014Z,99318.55
2018-01-03T00:16:09.937Z,99316.81
2018-01-03T00:18:39.288Z,99298.42
2018-01-03T00:21:08.128Z,99300.69
2018-01-03T00:23:37.397Z,99285.15
2018-01-03T00:26:06.067Z,99274.13
2018-01-03T00:28:34.868Z,99266.27
2018-01-03T00:31:08.495Z,99263.67
2018-01-03T00:33:36.159Z,99248.48
2018-01-03T00:36:05.401Z,99231.69
2018-01-03T00:38:34.337Z,99228.34
2018-01-03T00:41:04.095Z,99213.52
2018-01-03T00:43:35.356Z,99204.20
2018-01-03T00:46:03.776Z,99192.59
2018-01-03T00:48:32.519Z,99198.71
2018-01-03T00:51:01.696Z,99183.27
2018-01-03T00:53:30.640Z,99169.25
2018-01-03T00:56:01.267Z,99157.27
2018-01-03T00:58:29.693Z,99137.67
2018-01-03T01:00:58.374Z,99125.39
2018-01-03T01:03:26.829Z,99110.12
2018-01-03T01:05:54.976Z,99101.67
2018-01-03T01:08:24.299Z,99088.44
2018-01-03T01:10:51.935Z,99079.55
2018-01-03T01:13:21.264Z,99054.72
2018-01-03T01:15:50.899Z,99044.00
2018-01-03T01:18:21.061Z,99015.52
2018-01-03T01:20:50.569Z,98982.84
2018-01-03T01:23:18.227Z,98960.20
2018-01-03T01:25:48.814Z,98950.98
2018-01-03T01:28:17.636Z,98929.35
2018-01-03T01:30:47.090Z,98948.80
2018-01-03T01:33:16.979Z,98939.31
2018-01-03T01:38:20.462Z,98923.78
2018-01-03T01:40:50.702Z,98899.97
2018-01-03T01:48:26.813Z,98901.94
2018-01-03T01:50:55.379Z,98896.98
2018-01-03T01:53:24.882Z,98868.31
2018-01-03T01:55:55.721Z,98857.34
2018-01-03T01:58:25.319Z,98835.34
2018-01-03T02:00:52.975Z,98827.45
2018-01-03T02:03:22.442Z,98799.64
2018-01-03T02:05:51.790Z,98756.61
2018-01-03T02:08:21.495Z,98734.53
2018-01-03T02:10:49.375Z,98698.24
2018-01-03T02:13:20.975Z,98687.08
2018-01-03T02:15:50.694Z,98671.08
2018-01-03T02:18:23.062Z,98636.97
2018-01-03T02:20:51.314Z,98618.78
2018-01-03T02:23:23.343Z,98613.76
2018-01-03T02:25:51.764Z,98609.56
2018-01-03T02:28:20.602Z,98563.77
2018-01-03T02:30:48.309Z,98550.53
2018-01-03T02:33:19.499Z,98540.98
2018-01-03T02:35:50.730Z,98522.48
2018-01-03T02:38:30.162Z,98507.51
2018-01-03T02:40:58.569Z,98474.97
2018-01-03T02:43:31.403Z,98478.82
2018-01-03T02:46:00.205Z,98471.94
2018-01-03T02:48:29.147Z,98442.29
2018-01-03T02:50:59.422Z,98430.23
2018-01-03T02:53:27.869Z,98418.31
2018-01-03T02:55:55.619Z,98410.88
2018-01-03T02:58:25.329Z,98399.84
2018-01-03T03:00:53.438Z,98393.30
2018-01-03T03:03:22.555Z,98377.84
2018-01-03T03:05:53.136Z,98389.76
2018-01-03T03:08:22.952Z,98362.86
2018-01-03T03:10:51.175Z,98341.69
2018-01-03T03:13:22.791Z,98340.53
2018-01-03T03:15:51.292Z,98319.98
2018-01-03T03:18:22.888Z,98290.26
2018-01-03T03:20:51.742Z,98281.09
2018-01-03T03:23:21.090Z,98253.95
2018-01-03T03:25:50.314Z,98234.00
2018-01-03T03:28:21.709Z,98231.72
2018-01-03T03:30:51.566Z,98223.09
2018-01-03T03:33:19.193Z,98190.23
2018-01-03T03:35:48.975Z,98189.81
2018-01-03T03:38:22.080Z,98173.64
2018-01-03T03:40:52.554Z,98160.46
2018-01-03T03:43:25.129Z,98153.35
2018-01-03T03:46:01.432Z,98139.73
2018-01-03T03:48:32.939Z,98138.66
2018-01-03T03:51:01.443Z,98122.09
2018-01-03T03:53:29.191Z,98142.61
2018-01-03T03:55:59.456Z,98118.87
2018-01-03T03:58:31.343Z,98116.69
2018-01-03T04:00:59.043Z,98108.83
2018-01-03T04:03:30.119Z,98077.53
2018-01-03T04:06:02.188Z,98073.02
2018-01-03T04:08:34.008Z,98045.81
2018-01-03T04:11:04.668Z,98050.86
2018-01-03T04:13:34.094Z,98058.63
2018-01-03T04:16:02.539Z,98037.39
2018-01-03T04:18:30.146Z,98047.20
2018-01-03T04:20:58.890Z,98013.58
2018-01-03T04:23:26.925Z,98040.09
2018-01-03T04:25:58.416Z,98048.16
2018-01-03T04:28:26.072Z,98051.35
2018-01-03T04:30:56.209Z,98046.07
2018-01-03T04:33:24.627Z,98176.42
2018-01-03T04:35:54.896Z,98250.12
2018-01-03T04:38:26.213Z,98298.47
2018-01-03T04:40:59.935Z,98298.89
2018-01-03T04:43:30.162Z,98311.08
2018-01-03T04:46:00.164Z,98302.73
2018-01-03T04:48:28.074Z,98320.03
2018-01-03T04:50:56.719Z,98251.01
2018-01-03T04:53:27.443Z,98173.88
2018-01-03T04:55:55.118Z,98168.46
2018-01-03T04:58:25.523Z,98181.14
2018-01-03T05:00:57.763Z,98124.50
2018-01-03T05:03:28.625Z,98127.51
2018-01-03T05:05:57.830Z,98135.64
2018-01-03T05:08:26.671Z,98096.81
2018-01-03T05:10:57.272Z,98119.77
2018-01-03T05:13:28.165Z,98129.98
2018-01-03T05:15:56.525Z,98132.41
2018-01-03T05:18:25.114Z,98141.08
2018-01-03T05:20:54.403Z,98190.86
2018-01-03T05:23:24.264Z,98181.70
2018-01-03T05:25:54.110Z,98203.28
2018-01-03T05:28:22.230Z,98197.94
2018-01-03T05:30:51.526Z,98211.27
2018-01-03T05:33:20.113Z,98205.23
2018-01-03T05:35:48.548Z,98200.18
2018-01-03T05:38:18.027Z,98198.16
2018-01-03T05:40:46.052Z,98199.00
2018-01-03T05:43:15.527Z,98191.88
2018-01-03T05:45:43.423Z,98200.58
2018-01-03T05:48:12.777Z,98217.85
2018-01-03T05:50:41.252Z,98198.68
2018-01-03T05:53:12.731Z,98195.13
2018-01-03T05:55:43.475Z,98192.69
2018-01-03T05:58:14.147Z,98183.00
2018-01-03T06:00:45.634Z,98189.77
2018-01-03T06:03:13.282Z,98194.38
2018-01-03T06:05:43.088Z,98188.91
2018-01-03T06:08:11.362Z,98204.95
2018-01-03T06:10:41.488Z,98180.55
2018-01-03T06:13:11.442Z,98190.33
2018-01-03T06:15:41.822Z,98177.47
2018-01-03T06:18:12.207Z,98155.30
2018-01-03T06:20:39.936Z,98154.11
2018-01-03T06:23:08.177Z,98145.61
2018-01-03T06:25:39.733Z,98161.66
2018-01-03T06:28:08.495Z,98162.99
2018-01-03T06:30:40.224Z,98176.61
2018-01-03T06:33:09.928Z,98157.88
2018-01-03T06:35:38.696Z,98149.78
2018-01-03T06:38:08.616Z,98134.75
2018-01-03T06:40:37.400Z,98162.31
2018-01-03T06:43:08.962Z,98170.95
2018-01-03T06:45:37.909Z,98163.25
2018-01-03T06:48:07.376Z,98152.59
2018-01-03T06:50:37.342Z,98156.36
2018-01-03T06:53:07.423Z,98126.78
2018-01-03T06:55:38.651Z,98118.23
2018-01-03T06:58:07.163Z,98109.65
2018-01-03T07:00:36.379Z,98135.05
2018-01-03T07:03:06.913Z,98109.47
2018-01-03T07:05:37.051Z,98104.78
2018-01-03T07:08:06.974Z,98114.67
2018-01-03T07:10:35.371Z,98115.33
2018-01-03T07:13:08.991Z,98131.69
2018-01-03T07:15:38.693Z,98112.15
2018-01-03T07:18:09.576Z,98095.63
2018-01-03T07:20:39.622Z,98107.66
2018-01-03T07:23:07.885Z,98123.88
2018-01-03T07:25:40.674Z,98139.55
2018-01-03T07:28:09.522Z,98134.23
2018-01-03T07:30:39.330Z,98145.62
2018-01-03T07:33:16.813Z,98197.66
2018-01-03T07:35:46.014Z,98140.56
2018-01-03T07:38:15.338Z,98130.04
2018-01-03T07:40:43.538Z,98148.13
2018-01-03T07:43:12.877Z,98186.14
2018-01-03T07:45:40.709Z,98210.47
2018-01-03T07:48:11.851Z,98292.03
2018-01-03T07:50:41.289Z,98259.90
2018-01-03T07:53:10.510Z,98259.38
2018-01-03T07:55:42.200Z,98275.62
2018-01-03T07:58:10.903Z,98266.74
2018-01-03T08:00:42.126Z,98254.19
2018-01-03T08:03:12.858Z,98267.51
2018-01-03T08:05:45.667Z,98302.80
2018-01-03T08:08:15.957Z,98277.89
2018-01-03T08:10:44.397Z,98285.92
2018-01-03T08:13:14.844Z,98288.73
2018-01-03T08:15:45.126Z,98262.73
2018-01-03T08:18:13.745Z,98265.42
2018-01-03T08:20:43.296Z,98285.45
2018-01-03T08:23:11.851Z,98297.18
2018-01-03T08:25:41.252Z,98266.08
2018-01-03T08:28:13.248Z,98260.89
2018-01-03T08:30:41.944Z,98269.98
2018-01-03T08:33:10.164Z,98276.90
2018-01-03T08:35:39.773Z,98286.02
2018-01-03T08:38:11.879Z,98271.75
2018-01-03T08:40:41.386Z,98256.28
2018-01-03T08:43:09.491Z,98276.41
2018-01-03T08:45:39.401Z,98266.33
2018-01-03T08:48:06.987Z,98277.55
2018-01-03T08:50:36.380Z,98289.95
2018-01-03T08:53:04.681Z,98305.52
2018-01-03T08:55:36.294Z,98303.78
2018-01-03T08:58:05.710Z,98302.27
2018-01-03T09:00:38.287Z,98323.28
2018-01-03T09:03:05.884Z,98337.52
2018-01-03T09:05:38.655Z,98337.86
2018-01-03T09:08:07.090Z,98331.00
2018-01-03T09:10:37.687Z,98342.22
2018-01-03T09:13:08.591Z,98351.03
2018-01-03T09:15:37.852Z,98372.64
2018-01-03T09:18:06.553Z,98383.60
2018-01-03T09:20:34.835Z,98434.06
2018-01-03T09:23:04.012Z,98397.14
2018-01-03T09:25:39.572Z,98432.49
2018-01-03T09:28:08.112Z,98448.93
2018-01-03T09:30:36.482Z,98450.16
2018-01-03T09:33:09.042Z,98419.91
2018-01-03T09:35:37.738Z,98430.16
2018-01-03T09:38:06.196Z,98460.09
2018-01-03T09:40:35.185Z,98442.72
2018-01-03T09:43:04.575Z,98451.33
2018-01-03T09:45:36.281Z,98460.86
2018-01-03T09:48:06.765Z,98469.27
2018-01-03T09:50:35.991Z,98480.29
2018-01-03T09:53:04.609Z,98492.84
2018-01-03T09:55:34.536Z,98489.36
2018-01-03T09:58:05.373Z,98486.39
2018-01-03T10:00:37.198Z,98487.16
2018-01-03T10:03:05.130Z,98504.70
2018-01-03T10:05:34.257Z,98503.44
2018-01-03T10:08:06.976Z,98514.00
2018-01-03T10:10:38.125Z,98518.78
2018-01-03T10:13:07.166Z,98535.60
2018-01-03T10:15:36.523Z,98510.13
2018-01-03T10:18:05.454Z,98548.23
2018-01-03T10:20:35.040Z,98547.37
2018-01-03T10:23:10.260Z,98545.98
2018-01-03T10:25:38.832Z,98540.09
2018-01-03T10:28:07.848Z,98554.76
2018-01-03T10:30:37.444Z,98547.66
2018-01-03T10:33:05.211Z,98558.41
2018-01-03T10:35:34.097Z,98555.06
2018-01-03T10:38:06.050Z,98568.80
2018-01-03T10:40:37.085Z,98567.53
2018-01-03T10:43:06.133Z,98579.48
2018-01-03T10:45:36.372Z,98594.16
2018-01-03T10:50:40.949Z,98573.33
2018-01-03T10:53:10.869Z,98577.65
2018-01-03T10:55:39.648Z,98596.63
2018-01-03T10:58:09.476Z,98567.52
2018-01-03T11:00:38.126Z,98564.23
2018-01-03T11:03:13.248Z,98575.69
2018-01-03T11:05:42.178Z,98593.55
2018-01-03T11:08:11.385Z,98629.02
2018-01-03T11:10:41.098Z,98584.11
2018-01-03T11:13:10.782Z,98598.58
2018-01-03T11:15:42.225Z,98580.70
2018-01-03T11:18:11.041Z,98595.19
2018-01-03T11:20:39.779Z,98598.79
2018-01-03T11:23:10.568Z,98620.86
2018-01-03T11:25:40.646Z,98608.74
2018-01-03T11:28:09.806Z,98595.55
2018-01-03T11:30:39.206Z,98681.08
2018-01-03T11:33:10.591Z,98680.24
2018-01-03T11:35:38.756Z,98653.66
2018-01-03T11:38:07.871Z,98643.48
2018-01-03T11:40:41.346Z,98663.95
2018-01-03T11:43:14.740Z,98671.58
2018-01-03T11:45:46.271Z,98678.74
2018-01-03T11:48:14.674Z,98671.69
2018-01-03T11:50:43.977Z,98693.70
2018-01-03T11:53:12.344Z,98674.41
2018-01-03T11:55:40.003Z,98690.78
2018-01-03T11:58:07.628Z,98704.00
2018-01-03T12:00:37.127Z,98678.98
2018-01-03T12:03:05.766Z,98699.73
2018-01-03T12:05:34.936Z,98687.35
2018-01-03T12:08:03.252Z,98700.18
2018-01-03T12:10:34.480Z,98708.69
2018-01-03T12:13:05.370Z,98715.94
2018-01-03T12:15:33.946Z,98710.81
2018-01-03T12:18:03.540Z,98718.22
2018-01-03T12:20:31.297Z,98725.04
2018-01-03T12:23:02.530Z,98748.23
2018-01-03T12:25:30.516Z,98730.23
2018-01-03T12:28:00.590Z,98749.72
2018-01-03T12:30:29.504Z,98776.75
2018-01-03T12:33:01.103Z,98773.23
2018-01-03T12:35:31.104Z,98769.03
2018-01-03T12:38:01.425Z,98817.82
2018-01-03T12:40:29.709Z,98780.31
2018-01-03T12:43:00.757Z,98775.09
2018-01-03T12:45:29.710Z,98772.54
2018-01-03T12:47:59.798Z,98776.05
2018-01-03T12:50:30.370Z,98772.16
2018-01-03T12:53:08.092Z,98805.23
2018-01-03T12:55:38.646Z,98802.97
2018-01-03T12:58:07.072Z,98784.44
2018-01-03T13:03:10.985Z,98773.35
2018-01-03T13:05:41.144Z,98801.80
2018-01-03T13:08:12.235Z,98821.77
2018-01-03T13:10:42.209Z,98794.60
2018-01-03T13:13:09.998Z,98830.32
2018-01-03T13:15:37.774Z,98823.77
2018-01-03T13:18:08.360Z,98862.89
2018-01-03T13:20:39.624Z,98832.98
2018-01-03T13:23:10.107Z,98870.94
2018-01-03T13:25:44.987Z,98835.36
2018-01-03T13:28:14.733Z,98832.27
2018-01-03T13:30:44.221Z,98845.83
2018-01-03T13:33:14.870Z,98846.16
2018-01-03T13:35:46.010Z,98875.83
2018-01-03T13:38:15.105Z,98865.13
2018-01-03T13:40:44.590Z,98863.16
2018-01-03T13:43:14.187Z,98883.05
2018-01-03T13:45:44.556Z,98936.01
2018-01-03T13:48:14.200Z,98885.24
2018-01-03T13:50:43.326Z,98959.09
2018-01-03T13:53:28.652Z,98873.72
2018-01-03T13:55:56.429Z,98882.31
2018-01-03T13:58:32.724Z,98927.74
2018-01-03T14:01:01.349Z,98885.61
2018-01-03T14:03:30.802Z,98909.99
2018-01-03T14:06:01.055Z,98909.99
2018-01-03T14:08:29.764Z,98933.56
2018-01-03T14:10:59.375Z,98962.52
2018-01-03T14:13:28.623Z,98946.46
2018-01-03T14:15:56.293Z,98954.66
2018-01-03T14:18:27.342Z,98990.96
2018-01-03T14:20:58.166Z,98966.05
2018-01-03T14:23:29.572Z,98958.00
2018-01-03T14:26:02.650Z,98979.81
2018-01-03T14:28:32.506Z,98961.36
2018-01-03T14:31:08.139Z,98991.42
2018-01-03T14:33:36.442Z,98983.83
2018-01-03T14:36:05.572Z,99001.31
2018-01-03T14:38:35.484Z,98997.31
2018-01-03T14:41:05.725Z,98984.31
2018-01-03T14:43:35.131Z,98999.33
2018-01-03T14:46:04.468Z,98986.94
2018-01-03T14:48:34.493Z,99016.30
2018-01-03T14:51:05.465Z,99029.02
2018-01-03T14:53:34.853Z,99046.06
2018-01-03T14:56:04.550Z,99028.17
2018-01-03T14:58:33.471Z,99022.13
2018-01-03T15:01:02.656Z,99038.58
2018-01-03T15:03:31.596Z,99055.81
2018-01-03T15:06:02.586Z,99061.20
2018-01-03T15:08:31.114Z,99063.51
2018-01-03T15:10:59.944Z,99061.95
2018-01-03T15:13:32.028Z,99078.14
2018-01-03T15:16:03.541Z,99105.99
2018-01-03T15:18:33.459Z,99130.13
2018-01-03T15:21:01.274Z,99065.94
2018-01-03T15:23:30.746Z,99079.20
2018-01-03T15:26:15.070Z,99103.59
2018-01-03T15:28:48.672Z,99086.91
2018-01-03T15:31:18.127Z,99102.62
2018-01-03T15:33:48.410Z,99110.70
2018-01-03T15:36:17.252Z,99089.59
2018-01-03T15:38:46.258Z,99109.13
2018-01-03T15:41:17.522Z,99111.65
2018-01-03T15:43:45.992Z,99115.91
2018-01-03T15:46:14.528Z,99128.31
2018-01-03T15:48:45.889Z,99148.60
2018-01-03T15:51:14.784Z,99177.69
2018-01-03T15:56:32.814Z,99169.36
2018-01-03T15:59:11.137Z,99155.31
2018-01-03T16:01:42.912Z,99159.81
2018-01-03T16:04:14.805Z,99182.24
2018-01-03T16:06:45.426Z,99191.45
2018-01-03T16:09:14.716Z,99158.77
2018-01-03T16:11:44.071Z,99173.14
2018-01-03T16:14:16.998Z,99182.77
2018-01-03T16:16:49.301Z,99194.27
2018-01-03T16:19:18.156Z,99175.74
2018-01-03T16:21:45.754Z,99192.28
2018-01-03T16:24:18.083Z,99197.40
2018-01-03T16:26:45.708Z,99207.16
2018-01-03T16:29:13.334Z,99189.42
2018-01-03T16:31:40.919Z,99192.73
2018-01-03T16:34:08.567Z,99183.16
2018-01-03T16:36:38.334Z,99194.08
2018-01-03T16:39:07.991Z,99194.34
2018-01-03T16:41:37.882Z,99180.11
2018-01-03T16:44:08.084Z,99200.41
2018-01-03T16:46:42.605Z,99188.68
2018-01-03T16:49:13.389Z,99188.54
2018-01-03T16:51:48.550Z,99186.94
2018-01-03T16:54:17.949Z,99179.09
2018-01-03T16:56:46.579Z,99171.80
2018-01-03T16:59:15.946Z,99193.13
2018-01-03T17:01:44.058Z,99180.02
2018-01-03T17:04:12.495Z,99201.56
2018-01-03T17:06:43.072Z,99183.64
2018-01-03T17:09:13.207Z,99183.86
2018-01-03T17:11:42.177Z,99205.36
2018-01-03T17:14:13.176Z,99196.14
2018-01-03T17:16:44.458Z,99201.34
2018-01-03T17:19:13.323Z,99225.03
2018-01-03T17:21:40.982Z,99200.72
2018-01-03T17:24:10.956Z,99206.36
2018-01-03T17:26:42.603Z,99211.19
2018-01-03T17:29:11.637Z,99227.72
2018-01-03T17:31:44.391Z,99207.55
2018-01-03T17:34:12.785Z,99208.17
2018-01-03T17:36:45.426Z,99221.50
2018-01-03T17:39:14.633Z,99215.80
2018-01-03T17:41:42.242Z,99224.29
2018-01-03T17:44:13.269Z,99225.79
2018-01-03T17:46:42.069Z,99222.67
2018-01-03T17:49:09.712Z,99223.18
2018-01-03T17:51:46.890Z,99233.28
2018-01-03T17:54:22.776Z,99233.18
2018-01-03T17:56:51.383Z,99224.83
2018-01-03T17:59:20.646Z,99227.10
2018-01-03T18:01:53.057Z,99230.16
2018-01-03T18:04:22.507Z,99232.70
2018-01-03T18:06:50.996Z,99248.28
2018-01-03T18:09:20.003Z,99229.13
2018-01-03T18:11:51.603Z,99223.69
2018-01-03T18:14:21.444Z,99238.75
2018-01-03T18:16:49.044Z,99252.56
2018-01-03T18:19:16.723Z,99246.29
2018-01-03T18:21:45.483Z,99245.19
2018-01-03T18:24:13.867Z,99240.39
2018-01-03T18:26:43.009Z,99240.38
2018-01-03T18:29:10.635Z,99237.97
2018-01-03T18:31:38.225Z,99236.23
2018-01-03T18:34:05.879Z,99236.09
2018-01-03T18:36:35.847Z,99225.14
2018-01-03T18:39:03.713Z,99230.31
2018-01-03T18:41:34.333Z,99213.91
2018-01-03T18:44:02.979Z,99219.16
2018-01-03T18:46:32.217Z,99231.36
2018-01-03T18:49:01.399Z,99224.37
2018-01-03T18:51:30.245Z,99248.76
2018-01-03T18:54:02.608Z,99252.05
2018-01-03T18:56:30.244Z,99244.66
2018-01-03T18:59:00.598Z,99266.39
2018-01-03T19:01:28.476Z,99241.38
2018-01-03T19:03:56.113Z,99228.96
2018-01-03T19:06:26.084Z,99255.16
2018-01-03T19:08:53.757Z,99233.05
2018-01-03T19:11:21.752Z,99234.48
2018-01-03T19:13:50.988Z,99267.58
2018-01-03T19:16:20.142Z,99272.77
2018-01-03T19:18:50.630Z,99283.01
2018-01-03T19:21:25.240Z,99274.63
2018-01-03T19:23:54.202Z,99286.56
2018-01-03T19:26:24.602Z,99302.83
2018-01-03T19:28:54.110Z,99302.62
2018-01-03T19:31:26.398Z,99296.58
2018-01-03T19:33:57.095Z,99266.42
2018-01-03T19:36:26.250Z,99268.77
2018-01-03T19:38:54.726Z,99271.73
2018-01-03T19:41:24.859Z,99305.87
2018-01-03T19:43:53.628Z,99294.06
2018-01-03T19:46:24.980Z,99311.31
2018-01-03T19:48:53.119Z,99299.20
2018-01-03T19:51:28.172Z,99296.88
2018-01-03T19:53:56.619Z,99292.58
2018-01-03T19:56:24.234Z,99321.22
2018-01-03T19:58:52.553Z,99327.77
2018-01-03T20:01:21.425Z,99326.55
2018-01-03T20:03:50.275Z,99325.44
2018-01-03T20:06:21.429Z,99323.33
2018-01-03T20:08:50.813Z,99323.66
2018-01-03T20:11:19.077Z,99314.42
2018-01-03T20:13:50.331Z,99327.08
2018-01-03T20:16:19.711Z,99361.08
2018-01-03T20:18:47.336Z,99386.16
2018-01-03T20:21:15.790Z,99359.63
2018-01-03T20:23:44.173Z,99356.89
2018-01-03T20:26:13.261Z,99362.75
2018-01-03T20:28:46.036Z,99358.25
2018-01-03T20:31:14.282Z,99335.21
2018-01-03T20:33:43.599Z,99343.63
2018-01-03T20:36:12.178Z,99371.91
2018-01-03T20:38:46.085Z,99343.28
2018-01-03T20:41:14.966Z,99337.97
2018-01-03T20:43:44.463Z,99346.40
2018-01-03T20:46:12.102Z,99337.87
2018-01-03T20:48:41.326Z,99352.55
2018-01-03T20:51:10.647Z,99366.00
2018-01-03T20:53:40.798Z,99373.19
2018-01-03T20:56:10.317Z,99364.77
2018-01-03T20:58:40.273Z,99361.56
2018-01-03T21:01:08.897Z,99381.06
2018-01-03T21:03:37.279Z,99377.50
2018-01-03T21:06:06.738Z,99371.80
2018-01-03T21:08:36.229Z,99376.36
2018-01-03T21:11:05.389Z,99360.23
2018-01-03T21:13:33.182Z,99354.28
2018-01-03T21:16:02.695Z,99366.96
2018-01-03T21:18:34.059Z,99360.05
2018-01-03T21:21:03.432Z,99367.13
2018-01-03T21:23:32.996Z,99366.86
2018-01-03T21:26:02.139Z,99360.89
2018-01-03T21:28:34.528Z,99371.78
2018-01-03T21:31:04.754Z,99363.03
2018-01-03T21:33:36.517Z,99366.77
2018-01-03T21:36:04.196Z,99357.84
2018-01-03T21:38:34.690Z,99359.57
2018-01-03T21:41:02.422Z,99352.78
2018-01-03T21:43:31.525Z,99355.85
2018-01-03T21:46:00.322Z,99343.58
2018-01-03T21:48:28.898Z,99367.57
2018-01-03T21:50:57.370Z,99359.55
2018-01-03T21:53:25.676Z,99380.72
2018-01-03T21:55:56.430Z,99369.56
2018-01-03T21:58:24.875Z,99376.36
2018-01-03T22:00:53.360Z,99364.22
2018-01-03T22:03:23.547Z,99352.91
2018-01-03T22:05:54.626Z,99361.36
2018-01-03T22:08:24.251Z,99365.39
2018-01-03T22:10:52.677Z,99347.26
2018-01-03T22:13:26.059Z,99342.66
2018-01-03T22:15:55.499Z,99335.74
2018-01-03T22:18:24.276Z,99342.70
2018-01-03T22:20:52.491Z,99334.98
2018-01-03T22:23:20.109Z,99336.06
2018-01-03T22:25:48.657Z,99333.94
2018-01-03T22:28:17.098Z,99339.90
2018-01-03T22:30:49.338Z,99323.27
2018-01-03T22:33:21.607Z,99342.98
2018-01-03T22:35:51.229Z,99353.10
2018-01-03T22:38:18.840Z,99332.19
2018-01-03T22:40:48.920Z,99321.09
2018-01-03T22:43:17.784Z,99329.34
2018-01-03T22:45:48.575Z,99335.04
2018-01-03T22:48:16.687Z,99345.55
2018-01-03T22:50:47.790Z,99342.88
2018-01-03T22:53:18.666Z,99373.52
2018-01-03T22:55:47.383Z,99388.69
2018-01-03T22:58:17.283Z,99371.30
2018-01-03T23:00:46.363Z,99366.88
2018-01-03T23:03:14.920Z,99383.44
2018-01-03T23:05:44.972Z,99373.34
2018-01-03T23:08:13.808Z,99378.08
2018-01-03T23:10:45.876Z,99409.17
2018-01-03T23:13:14.982Z,99387.59
2018-01-03T23:15:43.756Z,99381.01
2018-01-03T23:18:15.605Z,99386.23
2018-01-03T23:20:46.815Z,99395.44
2018-01-03T23:23:18.247Z,99384.24
2018-01-03T23:25:47.903Z,99387.42
2018-01-03T23:28:19.073Z,99390.09
2018-01-03T23:30:48.390Z,99384.50
2018-01-03T23:33:17.060Z,99390.86
2018-01-03T23:35:46.945Z,99404.47
2018-01-03T23:38:14.961Z,99396.59
2018-01-03T23:40:42.592Z,99407.67
2018-01-03T23:43:11.085Z,99399.27
2018-01-03T23:45:38.873Z,99397.00
2018-01-03T23:48:06.465Z,99394.70
2018-01-03T23:50:35.430Z,99389.36
2018-01-03T23:53:04.239Z,99400.03
2018-01-03T23:55:32.008Z,99392.29
2018-01-03T23:58:01.802Z,99402.27
